createdAt,value
2023-04-18T00:01:41.150Z,97346.91
2023-04-18T00:04:09.869Z,97350.19
2023-04-18T00:06:38.197Z,97350.30
2023-04-18T00:09:06.707Z,97353.25
2023-04-18T00:11:35.069Z,97355.52
2023-04-18T00:14:03.520Z,97356.33
2023-04-18T00:16:32.662Z,97354.15
2023-04-18T00:19:02.542Z,97358.33
2023-04-18T00:21:32.120Z,97356.45
2023-04-18T00:24:00.136Z,97354.25
2023-04-18T00:26:28.286Z,97361.80
2023-04-18T00:28:58.104Z,97364.89
2023-04-18T00:31:26.238Z,97365.58
2023-04-18T00:33:54.299Z,97364.22
2023-04-18T00:36:24.875Z,97364.94
2023-04-18T00:38:52.832Z,97367.20
2023-04-18T00:41:22.755Z,97365.84
2023-04-18T00:43:50.835Z,97367.17
2023-04-18T00:46:19.040Z,97369.89
2023-04-18T00:48:47.987Z,97369.57
2023-04-18T00:51:16.157Z,97370.50
2023-04-18T00:53:45.637Z,97371.94
2023-04-18T00:56:14.663Z,97374.73
2023-04-18T00:58:43.348Z,97373.61
2023-04-18T01:01:11.841Z,97370.92
2023-04-18T01:03:41.163Z,97366.25
2023-04-18T01:06:10.004Z,97365.74
2023-04-18T01:08:38.188Z,97366.77
2023-04-18T01:11:06.383Z,97361.97
2023-04-18T01:13:34.342Z,97362.89
2023-04-18T01:16:04.654Z,97362.85
2023-04-18T01:18:35.218Z,97361.96
2023-04-18T01:21:03.369Z,97363.27
2023-04-18T01:23:31.836Z,97359.10
2023-04-18T01:25:59.911Z,97363.53
2023-04-18T01:28:27.938Z,97364.68
2023-04-18T01:30:57.456Z,97363.05
2023-04-18T01:33:25.549Z,97362.92
2023-04-18T01:35:53.523Z,97363.02
2023-04-18T01:38:21.582Z,97359.63
2023-04-18T01:40:49.779Z,97357.50
2023-04-18T01:43:17.827Z,97360.68
2023-04-18T01:45:46.008Z,97359.95
2023-04-18T01:48:13.970Z,97356.51
2023-04-18T01:50:43.382Z,97358.42
2023-04-18T01:53:12.162Z,97357.10
2023-04-18T01:55:40.247Z,97358.55
2023-04-18T01:58:08.336Z,97355.44
2023-04-18T02:00:37.731Z,97356.67
2023-04-18T02:03:06.920Z,97354.77
2023-04-18T02:05:36.481Z,97354.20
2023-04-18T02:08:04.987Z,97351.23
2023-04-18T02:10:33.117Z,97356.36
2023-04-18T02:13:01.135Z,97355.85
2023-04-18T02:15:29.299Z,97352.73
2023-04-18T02:18:00.306Z,97355.30
2023-04-18T02:20:31.792Z,97356.53
2023-04-18T02:23:03.354Z,97360.22
2023-04-18T02:25:31.413Z,97360.50
2023-04-18T02:27:59.488Z,97360.19
2023-04-18T02:30:28.270Z,97361.82
2023-04-18T02:32:59.280Z,97363.62
2023-04-18T02:35:28.127Z,97359.97
2023-04-18T02:37:56.592Z,97358.83
2023-04-18T02:40:24.719Z,97355.06
2023-04-18T02:42:52.727Z,97355.88
2023-04-18T02:45:21.107Z,97359.91
2023-04-18T02:47:55.632Z,97362.92
2023-04-18T02:50:25.272Z,97366.90
2023-04-18T02:52:54.539Z,97365.04
2023-04-18T02:55:24.594Z,97362.73
2023-04-18T02:57:52.937Z,97367.92
2023-04-18T03:00:44.049Z,97368.39
2023-04-18T03:03:25.161Z,97369.30
2023-04-18T03:06:17.133Z,97369.36
2023-04-18T03:08:45.547Z,97362.89
2023-04-18T03:11:14.515Z,97366.11
2023-04-18T03:13:42.472Z,97367.27
2023-04-18T03:16:11.588Z,97372.03
2023-04-18T03:18:40.121Z,97375.45
2023-04-18T03:21:08.436Z,97368.85
2023-04-18T03:23:37.972Z,97374.58
2023-04-18T03:26:07.953Z,97376.33
2023-04-18T03:28:36.946Z,97374.95
2023-04-18T03:31:05.676Z,97374.38
2023-04-18T03:33:34.932Z,97373.75
2023-04-18T03:36:09.162Z,97372.98
2023-04-18T03:38:40.704Z,97375.34
2023-04-18T03:41:09.485Z,97371.45
2023-04-18T03:43:38.481Z,97371.56
2023-04-18T03:46:06.464Z,97371.95
2023-04-18T03:48:37.425Z,97375.73
2023-04-18T03:51:10.469Z,97378.95
2023-04-18T03:53:39.049Z,97383.11
2023-04-18T03:56:07.267Z,97385.62
2023-04-18T03:58:55.579Z,97386.44
2023-04-18T04:01:24.054Z,97387.63
2023-04-18T04:03:53.115Z,97391.23
2023-04-18T04:06:23.167Z,97396.30
2023-04-18T04:08:51.347Z,97395.70
2023-04-18T04:11:22.813Z,97396.79
2023-04-18T04:13:51.377Z,97405.15
2023-04-18T04:16:21.926Z,97405.30
2023-04-18T04:18:51.108Z,97409.95
2023-04-18T04:21:21.264Z,97410.97
2023-04-18T04:23:53.894Z,97411.89
2023-04-18T04:26:27.819Z,97414.48
2023-04-18T04:29:03.818Z,97417.48
2023-04-18T04:31:33.114Z,97417.34
2023-04-18T04:34:01.946Z,97416.85
2023-04-18T04:36:30.002Z,97416.97
2023-04-18T04:38:59.729Z,97416.58
2023-04-18T04:41:33.527Z,97414.37
2023-04-18T04:44:02.007Z,97411.23
2023-04-18T04:46:32.731Z,97408.98
2023-04-18T04:49:01.427Z,97406.88
2023-04-18T04:51:29.595Z,97405.12
2023-04-18T04:53:58.182Z,97408.77
2023-04-18T04:56:26.480Z,97411.24
2023-04-18T04:58:56.260Z,97413.52
2023-04-18T05:01:30.958Z,97415.47
2023-04-18T05:03:59.807Z,97415.27
2023-04-18T05:06:28.258Z,97415.79
2023-04-18T05:08:57.640Z,97419.95
2023-04-18T05:11:25.725Z,97425.14
2023-04-18T05:13:54.001Z,97424.12
2023-04-18T05:16:22.151Z,97425.08
2023-04-18T05:18:50.357Z,97428.92
2023-04-18T05:21:18.530Z,97431.45
2023-04-18T05:23:46.794Z,97435.24
2023-04-18T05:26:15.084Z,97434.36
2023-04-18T05:28:43.148Z,97432.45
2023-04-18T05:31:11.296Z,97431.76
2023-04-18T05:33:39.287Z,97436.37
2023-04-18T05:36:07.713Z,97437.27
2023-04-18T05:38:35.963Z,97439.47
2023-04-18T05:41:04.032Z,97440.58
2023-04-18T05:43:32.186Z,97440.38
2023-04-18T05:46:00.291Z,97439.42
2023-04-18T05:48:28.451Z,97438.58
2023-04-18T05:50:56.607Z,97434.40
2023-04-18T05:53:24.885Z,97433.26
2023-04-18T05:55:52.952Z,97438.92
2023-04-18T05:58:21.136Z,97441.39
2023-04-18T06:00:49.211Z,97438.40
2023-04-18T06:03:17.529Z,97440.29
2023-04-18T06:05:46.229Z,97440.00
2023-04-18T06:08:14.339Z,97440.61
2023-04-18T06:10:42.404Z,97443.02
2023-04-18T06:13:10.675Z,97439.60
2023-04-18T06:15:38.855Z,97440.92
2023-04-18T06:18:07.261Z,97439.86
2023-04-18T06:20:35.608Z,97441.97
2023-04-18T06:23:03.884Z,97440.34
2023-04-18T06:25:31.856Z,97436.30
2023-04-18T06:27:59.944Z,97433.14
2023-04-18T06:30:27.985Z,97430.30
2023-04-18T06:32:56.193Z,97428.86
2023-04-18T06:35:26.382Z,97431.05
2023-04-18T06:37:54.877Z,97430.02
2023-04-18T06:40:23.145Z,97429.48
2023-04-18T06:42:51.106Z,97428.73
2023-04-18T06:45:19.640Z,97427.15
2023-04-18T06:47:48.963Z,97417.61
2023-04-18T06:50:18.615Z,97416.14
2023-04-18T06:52:46.663Z,97419.11
2023-04-18T06:55:14.645Z,97423.91
2023-04-18T06:57:43.529Z,97418.26
2023-04-18T07:00:12.153Z,97415.71
2023-04-18T07:02:41.262Z,97414.04
2023-04-18T07:05:10.126Z,97414.08
2023-04-18T07:07:38.368Z,97418.86
2023-04-18T07:10:08.974Z,97416.34
2023-04-18T07:12:37.382Z,97415.73
2023-04-18T07:15:05.924Z,97422.84
2023-04-18T07:17:34.065Z,97422.86
2023-04-18T07:20:02.086Z,97426.95
2023-04-18T07:22:30.079Z,97430.02
2023-04-18T07:24:58.137Z,97432.34
2023-04-18T07:27:26.989Z,97433.21
2023-04-18T07:29:54.986Z,97438.02
2023-04-18T07:32:22.987Z,97436.38
2023-04-18T07:34:52.981Z,97437.55
2023-04-18T07:37:21.664Z,97437.48
2023-04-18T07:39:52.191Z,97434.27
2023-04-18T07:42:20.265Z,97441.75
2023-04-18T07:44:49.722Z,97438.56
2023-04-18T07:47:22.308Z,97437.20
2023-04-18T07:49:50.974Z,97435.98
2023-04-18T07:52:19.111Z,97433.65
2023-04-18T07:54:47.286Z,97430.61
2023-04-18T07:57:15.760Z,97431.23
2023-04-18T07:59:43.722Z,97425.71
2023-04-18T08:02:11.884Z,97424.17
2023-04-18T08:04:40.163Z,97423.71
2023-04-18T08:07:08.244Z,97422.21
2023-04-18T08:09:36.417Z,97417.52
2023-04-18T08:12:04.892Z,97420.01
2023-04-18T08:14:32.960Z,97417.66
2023-04-18T08:17:00.930Z,97418.95
2023-04-18T08:19:29.004Z,97419.12
2023-04-18T08:22:07.618Z,97420.31
2023-04-18T08:24:35.695Z,97416.02
2023-04-18T08:27:03.786Z,97413.68
2023-04-18T08:29:31.940Z,97414.73
2023-04-18T08:32:00.340Z,97407.23
2023-04-18T08:34:30.020Z,97411.42
2023-04-18T08:36:58.086Z,97411.96
2023-04-18T08:39:26.462Z,97412.59
2023-04-18T08:41:59.685Z,97412.11
2023-04-18T08:44:31.117Z,97411.14
2023-04-18T08:47:02.663Z,97416.39
2023-04-18T08:49:31.571Z,97409.02
2023-04-18T08:52:01.514Z,97411.16
2023-04-18T08:54:30.658Z,97414.08
2023-04-18T08:57:10.441Z,97408.61
2023-04-18T08:59:40.199Z,97403.55
2023-04-18T09:02:10.368Z,97401.73
2023-04-18T09:04:41.219Z,97407.20
2023-04-18T09:07:14.161Z,97405.23
2023-04-18T09:09:42.219Z,97401.69
2023-04-18T09:12:14.601Z,97400.45
2023-04-18T09:14:50.347Z,97400.06
2023-04-18T09:17:51.319Z,97406.64
2023-04-18T09:20:47.726Z,97405.02
2023-04-18T09:23:23.603Z,97403.27
2023-04-18T09:25:53.390Z,97405.84
2023-04-18T09:28:40.889Z,97398.79
2023-04-18T09:31:14.635Z,97398.48
2023-04-18T09:33:57.024Z,97399.70
2023-04-18T09:36:31.562Z,97399.24
2023-04-18T09:39:00.229Z,97397.87
2023-04-18T09:41:30.662Z,97395.98
2023-04-18T09:44:14.864Z,97398.65
2023-04-18T09:46:47.203Z,97403.02
2023-04-18T09:49:16.930Z,97401.83
2023-04-18T09:51:46.503Z,97390.92
2023-04-18T09:54:18.674Z,97392.48
2023-04-18T09:56:50.811Z,97395.48
2023-04-18T09:59:34.042Z,97395.76
2023-04-18T10:02:05.657Z,97391.94
2023-04-18T10:04:34.593Z,97388.50
2023-04-18T10:07:03.700Z,97388.30
2023-04-18T10:09:34.702Z,97391.04
2023-04-18T10:12:03.449Z,97391.98
2023-04-18T10:14:33.434Z,97391.62
2023-04-18T10:17:01.878Z,97391.66
2023-04-18T10:19:30.403Z,97389.23
2023-04-18T10:22:01.072Z,97392.40
2023-04-18T10:24:49.957Z,97389.16
2023-04-18T10:27:37.719Z,97386.73
2023-04-18T10:30:08.898Z,97390.27
2023-04-18T10:32:37.468Z,97387.06
2023-04-18T10:35:06.743Z,97383.52
2023-04-18T10:37:34.821Z,97383.89
2023-04-18T10:40:06.896Z,97384.77
2023-04-18T10:42:47.424Z,97390.41
2023-04-18T10:45:23.103Z,97388.27
2023-04-18T10:48:11.403Z,97378.55
2023-04-18T10:51:12.420Z,97372.88
2023-04-18T10:53:54.572Z,97377.11
2023-04-18T10:56:22.764Z,97370.60
2023-04-18T10:58:52.425Z,97369.54
2023-04-18T11:01:31.178Z,97368.67
2023-04-18T11:04:01.580Z,97366.88
2023-04-18T11:06:31.505Z,97362.17
2023-04-18T11:09:10.245Z,97365.73
2023-04-18T11:11:38.548Z,97366.80
2023-04-18T11:14:06.579Z,97364.42
2023-04-18T11:16:34.777Z,97368.54
2023-04-18T11:19:20.982Z,97360.30
2023-04-18T11:21:51.366Z,97368.52
2023-04-18T11:24:24.394Z,97365.59
2023-04-18T11:26:56.179Z,97362.04
2023-04-18T11:29:24.288Z,97360.52
2023-04-18T11:31:55.958Z,97358.07
2023-04-18T11:34:30.871Z,97352.59
2023-04-18T11:36:59.672Z,97347.15
2023-04-18T11:39:28.157Z,97346.20
2023-04-18T11:41:57.462Z,97341.92
2023-04-18T11:44:27.050Z,97341.95
2023-04-18T11:46:55.333Z,97341.90
2023-04-18T11:49:32.063Z,97338.19
2023-04-18T11:52:01.324Z,97338.06
2023-04-18T11:54:48.428Z,97338.64
2023-04-18T11:57:29.912Z,97336.56
2023-04-18T11:59:59.922Z,97337.14
2023-04-18T12:02:40.715Z,97332.41
2023-04-18T12:05:11.028Z,97330.09
2023-04-18T12:07:40.516Z,97328.44
2023-04-18T12:10:23.541Z,97327.75
2023-04-18T12:12:55.899Z,97327.46
2023-04-18T12:15:27.414Z,97323.98
2023-04-18T12:18:03.638Z,97321.77
2023-04-18T12:20:39.308Z,97315.71
2023-04-18T12:23:08.173Z,97310.70
2023-04-18T12:25:36.641Z,97308.56
2023-04-18T12:28:15.234Z,97311.98
2023-04-18T12:30:43.425Z,97316.09
2023-04-18T12:33:11.708Z,97314.77
2023-04-18T12:35:40.087Z,97310.11
2023-04-18T12:38:08.156Z,97310.94
2023-04-18T12:40:39.554Z,97309.73
2023-04-18T12:43:08.387Z,97306.00
2023-04-18T12:45:36.671Z,97306.95
2023-04-18T12:48:04.885Z,97303.63
2023-04-18T12:50:33.324Z,97302.88
2023-04-18T12:53:02.512Z,97302.11
2023-04-18T12:55:30.689Z,97305.15
2023-04-18T12:57:58.992Z,97299.21
2023-04-18T13:00:30.357Z,97296.99
2023-04-18T13:02:59.618Z,97296.45
2023-04-18T13:05:32.948Z,97297.48
2023-04-18T13:08:15.128Z,97297.02
2023-04-18T13:10:46.346Z,97293.59
2023-04-18T13:13:14.724Z,97289.21
2023-04-18T13:15:43.009Z,97289.64
2023-04-18T13:18:11.097Z,97288.05
2023-04-18T13:20:39.251Z,97283.25
2023-04-18T13:23:07.321Z,97280.33
2023-04-18T13:25:35.381Z,97276.45
2023-04-18T13:28:03.681Z,97274.08
2023-04-18T13:30:32.145Z,97276.25
2023-04-18T13:33:00.334Z,97274.86
2023-04-18T13:35:28.714Z,97274.20
2023-04-18T13:37:56.980Z,97273.77
2023-04-18T13:40:25.360Z,97274.89
2023-04-18T13:42:53.931Z,97278.20
2023-04-18T13:45:22.113Z,97282.13
2023-04-18T13:47:50.227Z,97274.90
2023-04-18T13:50:18.553Z,97277.25
2023-04-18T13:52:48.879Z,97272.77
2023-04-18T13:55:17.748Z,97270.30
2023-04-18T13:57:46.248Z,97265.65
2023-04-18T14:00:15.333Z,97265.96
2023-04-18T14:02:43.694Z,97262.05
2023-04-18T14:05:11.949Z,97263.33
2023-04-18T14:07:40.040Z,97264.23
2023-04-18T14:10:08.776Z,97263.88
2023-04-18T14:12:36.933Z,97266.52
2023-04-18T14:15:05.908Z,97262.63
2023-04-18T14:17:33.989Z,97261.93
2023-04-18T14:20:02.664Z,97255.80
2023-04-18T14:22:30.714Z,97253.98
2023-04-18T14:24:59.331Z,97254.72
2023-04-18T14:27:27.860Z,97253.88
2023-04-18T14:29:55.871Z,97252.30
2023-04-18T14:32:24.039Z,97256.30
2023-04-18T14:34:52.844Z,97257.45
2023-04-18T14:37:21.380Z,97255.86
2023-04-18T14:39:49.402Z,97258.43
2023-04-18T14:42:18.178Z,97257.02
2023-04-18T14:44:46.564Z,97261.89
2023-04-18T14:47:14.728Z,97261.89
2023-04-18T14:49:42.702Z,97265.16
2023-04-18T14:52:10.761Z,97260.40
2023-04-18T14:54:38.938Z,97256.90
2023-04-18T14:57:08.562Z,97259.39
2023-04-18T14:59:36.476Z,97261.98
2023-04-18T15:02:04.874Z,97265.25
2023-04-18T15:04:33.277Z,97261.82
2023-04-18T15:07:02.074Z,97261.60
2023-04-18T15:09:30.256Z,97264.60
2023-04-18T15:12:00.270Z,97262.66
2023-04-18T15:14:29.159Z,97260.55
2023-04-18T15:16:58.296Z,97261.34
2023-04-18T15:19:27.923Z,97262.64
2023-04-18T15:21:56.126Z,97259.56
2023-04-18T15:24:24.391Z,97257.27
2023-04-18T15:26:52.458Z,97259.56
2023-04-18T15:29:20.936Z,97260.88
2023-04-18T15:31:49.026Z,97260.48
2023-04-18T15:34:17.610Z,97256.36
2023-04-18T15:36:48.796Z,97257.63
2023-04-18T15:39:20.392Z,97253.91
2023-04-18T15:41:51.539Z,97253.77
2023-04-18T15:44:19.618Z,97252.19
2023-04-18T15:46:48.844Z,97254.45
2023-04-18T15:49:17.273Z,97255.78
2023-04-18T15:51:45.260Z,97256.73
2023-04-18T15:54:13.604Z,97256.40
2023-04-18T15:56:44.039Z,97255.27
2023-04-18T15:59:13.338Z,97255.68
2023-04-18T16:01:42.783Z,97257.92
2023-04-18T16:04:13.418Z,97259.30
2023-04-18T16:06:41.854Z,97261.38
2023-04-18T16:09:10.457Z,97259.52
2023-04-18T16:11:38.404Z,97262.13
2023-04-18T16:14:06.480Z,97264.32
2023-04-18T16:16:34.663Z,97267.95
2023-04-18T16:19:04.359Z,97265.92
2023-04-18T16:21:32.722Z,97264.23
2023-04-18T16:24:01.032Z,97265.73
2023-04-18T16:26:29.594Z,97262.59
2023-04-18T16:28:57.769Z,97267.92
2023-04-18T16:31:25.922Z,97267.08
2023-04-18T16:33:54.090Z,97269.56
2023-04-18T16:36:22.270Z,97271.95
2023-04-18T16:38:50.558Z,97275.98
2023-04-18T16:41:18.637Z,97274.93
2023-04-18T16:43:47.017Z,97279.06
2023-04-18T16:46:15.104Z,97281.36
2023-04-18T16:48:45.073Z,97280.93
2023-04-18T16:51:13.342Z,97279.98
2023-04-18T16:53:42.169Z,97282.39
2023-04-18T16:56:10.341Z,97281.50
2023-04-18T16:58:38.438Z,97286.65
2023-04-18T17:01:08.319Z,97288.20
2023-04-18T17:03:36.862Z,97288.26
2023-04-18T17:06:05.952Z,97280.91
2023-04-18T17:08:34.383Z,97284.48
2023-04-18T17:11:02.576Z,97287.73
2023-04-18T17:13:31.712Z,97284.31
2023-04-18T17:16:00.053Z,97282.32
2023-04-18T17:18:29.543Z,97284.73
2023-04-18T17:20:57.714Z,97285.69
2023-04-18T17:23:25.894Z,97284.85
2023-04-18T17:25:54.363Z,97290.89
2023-04-18T17:28:23.802Z,97286.82
2023-04-18T17:30:52.146Z,97286.95
2023-04-18T17:33:21.185Z,97283.30
2023-04-18T17:35:49.292Z,97287.43
2023-04-18T17:38:17.366Z,97290.80
2023-04-18T17:40:45.546Z,97289.29
2023-04-18T17:43:13.617Z,97293.52
2023-04-18T17:45:41.696Z,97294.29
2023-04-18T17:48:09.954Z,97293.58
2023-04-18T17:50:38.149Z,97295.21
2023-04-18T17:53:06.429Z,97295.15
2023-04-18T17:55:34.470Z,97293.88
2023-04-18T17:58:05.329Z,97294.98
2023-04-18T18:00:33.324Z,97295.17
2023-04-18T18:03:01.792Z,97291.81
2023-04-18T18:05:30.696Z,97290.98
2023-04-18T18:08:01.180Z,97293.04
2023-04-18T18:10:29.737Z,97295.44
2023-04-18T18:12:58.373Z,97296.30
2023-04-18T18:15:26.530Z,97298.86
2023-04-18T18:17:55.693Z,97298.02
2023-04-18T18:20:24.213Z,97294.23
2023-04-18T18:22:54.560Z,97295.81
2023-04-18T18:25:22.795Z,97294.65
2023-04-18T18:27:51.704Z,97297.95
2023-04-18T18:30:21.937Z,97300.50
2023-04-18T18:32:50.252Z,97295.90
2023-04-18T18:35:18.414Z,97296.69
2023-04-18T18:37:46.485Z,97291.52
2023-04-18T18:40:15.147Z,97295.45
2023-04-18T18:42:43.090Z,97296.48
2023-04-18T18:45:11.317Z,97297.05
2023-04-18T18:47:40.191Z,97294.41
2023-04-18T18:50:09.232Z,97296.95
2023-04-18T18:52:37.724Z,97295.16
2023-04-18T18:55:06.653Z,97297.95
2023-04-18T18:57:34.778Z,97298.33
2023-04-18T19:00:03.155Z,97297.59
2023-04-18T19:02:31.478Z,97295.52
2023-04-18T19:05:00.583Z,97297.17
2023-04-18T19:07:30.068Z,97295.73
2023-04-18T19:10:00.646Z,97295.43
2023-04-18T19:12:29.453Z,97295.50
2023-04-18T19:14:57.938Z,97295.83
2023-04-18T19:17:26.412Z,97293.14
2023-04-18T19:19:58.088Z,97291.67
2023-04-18T19:22:26.339Z,97291.54
2023-04-18T19:24:54.404Z,97294.30
2023-04-18T19:27:23.402Z,97296.03
2023-04-18T19:29:51.673Z,97296.58
2023-04-18T19:32:20.891Z,97299.46
2023-04-18T19:34:48.939Z,97302.54
2023-04-18T19:37:17.013Z,97305.70
2023-04-18T19:39:45.050Z,97308.35
2023-04-18T19:42:13.362Z,97309.70
2023-04-18T19:44:41.893Z,97314.48
2023-04-18T19:47:10.186Z,97318.58
2023-04-18T19:49:38.289Z,97319.48
2023-04-18T19:52:06.425Z,97322.70
2023-04-18T19:54:34.639Z,97320.54
2023-04-18T19:57:04.758Z,97318.89
2023-04-18T19:59:32.923Z,97322.23
2023-04-18T20:02:04.339Z,97321.95
2023-04-18T20:04:34.294Z,97322.39
2023-04-18T20:07:03.076Z,97325.91
2023-04-18T20:09:31.249Z,97321.70
2023-04-18T20:12:01.568Z,97324.71
2023-04-18T20:14:30.162Z,97321.95
2023-04-18T20:16:58.484Z,97322.80
2023-04-18T20:19:26.916Z,97323.72
2023-04-18T20:21:55.185Z,97322.64
2023-04-18T20:24:24.034Z,97326.84
2023-04-18T20:26:52.057Z,97327.44
2023-04-18T20:29:20.335Z,97325.98
2023-04-18T20:31:48.498Z,97327.16
2023-04-18T20:34:16.668Z,97325.35
2023-04-18T20:36:45.174Z,97322.35
2023-04-18T20:39:14.326Z,97322.41
2023-04-18T20:41:46.706Z,97324.14
2023-04-18T20:44:15.934Z,97325.34
2023-04-18T20:46:44.073Z,97325.92
2023-04-18T20:49:12.273Z,97323.98
2023-04-18T20:51:40.328Z,97321.13
2023-04-18T20:54:08.591Z,97319.23
2023-04-18T20:56:37.405Z,97317.20
2023-04-18T20:59:05.463Z,97314.41
2023-04-18T21:01:33.802Z,97314.63
2023-04-18T21:04:03.306Z,97313.14
2023-04-18T21:06:31.527Z,97318.63
2023-04-18T21:08:59.509Z,97319.14
2023-04-18T21:11:27.965Z,97321.86
2023-04-18T21:13:55.949Z,97320.01
2023-04-18T21:16:24.352Z,97317.02
2023-04-18T21:18:54.534Z,97315.62
2023-04-18T21:21:22.604Z,97312.64
2023-04-18T21:23:50.982Z,97312.38
2023-04-18T21:26:19.046Z,97312.02
2023-04-18T21:28:56.569Z,97310.72
2023-04-18T21:31:27.193Z,97308.30
2023-04-18T21:33:56.997Z,97305.02
2023-04-18T21:36:27.106Z,97302.14
2023-04-18T21:38:56.512Z,97303.34
2023-04-18T21:41:25.727Z,97303.80
2023-04-18T21:43:54.502Z,97309.10
2023-04-18T21:46:22.804Z,97310.60
2023-04-18T21:48:51.268Z,97310.87
2023-04-18T21:51:19.343Z,97312.00
2023-04-18T21:53:47.489Z,97312.52
2023-04-18T21:56:16.945Z,97307.90
2023-04-18T21:58:45.162Z,97310.63
2023-04-18T22:01:13.379Z,97310.12
2023-04-18T22:03:41.918Z,97309.02
2023-04-18T22:06:10.495Z,97304.85
2023-04-18T22:08:38.990Z,97305.25
2023-04-18T22:11:09.309Z,97305.42
2023-04-18T22:13:37.355Z,97302.73
2023-04-18T22:16:05.996Z,97302.47
2023-04-18T22:18:34.192Z,97298.61
2023-04-18T22:21:03.564Z,97296.36
2023-04-18T22:23:31.913Z,97297.47
2023-04-18T22:25:59.984Z,97295.98
2023-04-18T22:28:28.682Z,97295.38
2023-04-18T22:30:57.141Z,97296.73
2023-04-18T22:33:25.851Z,97295.89
2023-04-18T22:35:54.525Z,97296.37
2023-04-18T22:38:22.903Z,97292.05
2023-04-18T22:40:50.967Z,97287.58
2023-04-18T22:43:23.877Z,97286.44
2023-04-18T22:45:52.114Z,97287.73
2023-04-18T22:48:20.436Z,97285.63
2023-04-18T22:50:50.100Z,97284.63
2023-04-18T22:53:18.402Z,97282.11
2023-04-18T22:55:46.881Z,97282.89
2023-04-18T22:58:15.130Z,97279.96
2023-04-18T23:00:43.448Z,97278.12
2023-04-18T23:03:11.829Z,97278.94
2023-04-18T23:05:41.164Z,97275.48
2023-04-18T23:08:09.386Z,97274.44
2023-04-18T23:10:38.381Z,97271.60
2023-04-18T23:13:06.560Z,97272.02
2023-04-18T23:15:34.751Z,97264.02
2023-04-18T23:18:03.116Z,97264.55
2023-04-18T23:20:31.283Z,97261.41
2023-04-18T23:22:59.455Z,97260.32
2023-04-18T23:25:27.543Z,97258.00
2023-04-18T23:27:55.778Z,97253.52
2023-04-18T23:30:24.025Z,97249.30
2023-04-18T23:32:52.293Z,97247.10
2023-04-18T23:35:20.415Z,97243.46
2023-04-18T23:37:48.478Z,97245.07
2023-04-18T23:40:16.660Z,97242.27
2023-04-18T23:42:44.955Z,97242.55
2023-04-18T23:45:13.219Z,97241.70
2023-04-18T23:47:41.663Z,97234.90
2023-04-18T23:50:10.388Z,97233.54
2023-04-18T23:52:38.782Z,97227.79
2023-04-18T23:55:07.439Z,97227.95
2023-04-18T23:57:35.727Z,97226.77
